sensor_id;sensor_type;location;lat;lon;timestamp;temperature;humidity
25933;DHT22;13731;51.166;4.474;2022-11-20T00:01:16;4.90;1.00
25933;DHT22;13731;51.166;4.474;2022-11-20T00:03:42;5.10;99.90
25933;DHT22;13731;51.166;4.474;2022-11-20T00:06:09;5.10;1.00
25933;DHT22;13731;51.166;4.474;2022-11-20T00:08:35;5.10;1.00
25933;DHT22;13731;51.166;4.474;2022-11-20T00:11:05;4.90;1.00
25933;DHT22;13731;51.166;4.474;2022-11-20T00:13:30;4.70;99.90
25933;DHT22;13731;51.166;4.474;2022-11-20T00:15:57;4.60;66.60
25933;DHT22;13731;51.166;4.474;2022-11-20T00:18:22;4.60;19.30
25933;DHT22;13731;51.166;4.474;2022-11-20T00:20:48;4.70;71.20
25933;DHT22;13731;51.166;4.474;2022-11-20T00:23:14;4.60;99.90
25933;DHT22;13731;51.166;4.474;2022-11-20T00:25:39;4.70;99.90
25933;DHT22;13731;51.166;4.474;2022-11-20T00:28:05;4.80;99.90
25933;DHT22;13731;51.166;4.474;2022-11-20T00:30:30;5.10;1.00
25933;DHT22;13731;51.166;4.474;2022-11-20T00:32:56;5.30;99.90
25933;DHT22;13731;51.166;4.474;2022-11-20T00:35:22;5.50;1.00
25933;DHT22;13731;51.166;4.474;2022-11-20T00:37:48;5.50;1.00
25933;DHT22;13731;51.166;4.474;2022-11-20T00:40:13;5.70;1.00
25933;DHT22;13731;51.166;4.474;2022-11-20T00:42:39;5.50;1.00
25933;DHT22;13731;51.166;4.474;2022-11-20T00:45:05;5.30;99.90
25933;DHT22;13731;51.166;4.474;2022-11-20T00:47:31;5.30;99.90
25933;DHT22;13731;51.166;4.474;2022-11-20T00:49:56;5.50;99.90
25933;DHT22;13731;51.166;4.474;2022-11-20T00:52:22;5.40;50.90
25933;DHT22;13731;51.166;4.474;2022-11-20T00:54:48;5.50;99.90
25933;DHT22;13731;51.166;4.474;2022-11-20T00:57:13;5.40;99.90
25933;DHT22;13731;51.166;4.474;2022-11-20T00:59:39;5.40;99.90
25933;DHT22;13731;51.166;4.474;2022-11-20T01:02:04;5.40;99.90
25933;DHT22;13731;51.166;4.474;2022-11-20T01:04:30;5.30;99.90
25933;DHT22;13731;51.166;4.474;2022-11-20T01:06:56;5.20;99.90
25933;DHT22;13731;51.166;4.474;2022-11-20T01:09:21;5.10;99.90
25933;DHT22;13731;51.166;4.474;2022-11-20T01:11:47;5.10;99.90
25933;DHT22;13731;51.166;4.474;2022-11-20T01:14:14;5.00;99.90
25933;DHT22;13731;51.166;4.474;2022-11-20T01:16:41;4.70;1.00
25933;DHT22;13731;51.166;4.474;2022-11-20T01:19:09;4.60;99.90
25933;DHT22;13731;51.166;4.474;2022-11-20T01:21:36;4.50;1.00
25933;DHT22;13731;51.166;4.474;2022-11-20T01:24:03;4.60;1.00
25933;DHT22;13731;51.166;4.474;2022-11-20T01:26:29;4.50;1.00
25933;DHT22;13731;51.166;4.474;2022-11-20T01:28:55;4.50;1.00
25933;DHT22;13731;51.166;4.474;2022-11-20T01:31:25;4.60;1.00
25933;DHT22;13731;51.166;4.474;2022-11-20T01:33:52;4.50;1.00
25933;DHT22;13731;51.166;4.474;2022-11-20T01:36:19;4.50;1.00
25933;DHT22;13731;51.166;4.474;2022-11-20T01:38:45;4.50;1.00
25933;DHT22;13731;51.166;4.474;2022-11-20T01:41:11;4.40;85.50
25933;DHT22;13731;51.166;4.474;2022-11-20T01:43:57;4.50;99.90
25933;DHT22;13731;51.166;4.474;2022-11-20T01:46:23;4.40;72.70
25933;DHT22;13731;51.166;4.474;2022-11-20T01:49:08;4.30;99.90
25933;DHT22;13731;51.166;4.474;2022-11-20T01:51:39;4.20;1.00
25933;DHT22;13731;51.166;4.474;2022-11-20T01:54:08;4.10;99.90
25933;DHT22;13731;51.166;4.474;2022-11-20T01:56:36;4.20;99.90
25933;DHT22;13731;51.166;4.474;2022-11-20T01:59:02;4.40;65.60
25933;DHT22;13731;51.166;4.474;2022-11-20T02:01:28;4.40;1.00
25933;DHT22;13731;51.166;4.474;2022-11-20T02:03:54;4.50;1.00
25933;DHT22;13731;51.166;4.474;2022-11-20T02:06:27;4.40;1.00
25933;DHT22;13731;51.166;4.474;2022-11-20T02:08:53;4.40;99.90
25933;DHT22;13731;51.166;4.474;2022-11-20T02:11:20;4.40;99.90
25933;DHT22;13731;51.166;4.474;2022-11-20T02:13:46;4.50;99.90
25933;DHT22;13731;51.166;4.474;2022-11-20T02:16:15;4.50;99.90
25933;DHT22;13731;51.166;4.474;2022-11-20T02:18:42;4.40;99.90
25933;DHT22;13731;51.166;4.474;2022-11-20T02:22:09;4.50;99.90
25933;DHT22;13731;51.166;4.474;2022-11-20T02:24:04;4.60;71.30
25933;DHT22;13731;51.166;4.474;2022-11-20T02:26:31;4.70;1.00
25933;DHT22;13731;51.166;4.474;2022-11-20T02:28:58;4.70;1.00
25933;DHT22;13731;51.166;4.474;2022-11-20T02:31:24;4.60;1.00
25933;DHT22;13731;51.166;4.474;2022-11-20T02:33:56;4.60;1.00
25933;DHT22;13731;51.166;4.474;2022-11-20T02:36:22;4.60;1.00
25933;DHT22;13731;51.166;4.474;2022-11-20T02:38:49;4.60;1.00
25933;DHT22;13731;51.166;4.474;2022-11-20T02:41:15;4.50;1.00
25933;DHT22;13731;51.166;4.474;2022-11-20T02:43:40;4.50;1.00
25933;DHT22;13731;51.166;4.474;2022-11-20T02:46:07;4.50;1.00
25933;DHT22;13731;51.166;4.474;2022-11-20T02:48:33;4.50;44.70
25933;DHT22;13731;51.166;4.474;2022-11-20T02:50:58;4.40;34.60
25933;DHT22;13731;51.166;4.474;2022-11-20T02:53:24;4.50;41.20
25933;DHT22;13731;51.166;4.474;2022-11-20T02:55:50;4.50;51.10
25933;DHT22;13731;51.166;4.474;2022-11-20T02:58:15;4.50;77.80
25933;DHT22;13731;51.166;4.474;2022-11-20T03:00:41;4.50;99.90
25933;DHT22;13731;51.166;4.474;2022-11-20T03:03:07;4.50;99.90
25933;DHT22;13731;51.166;4.474;2022-11-20T03:05:32;4.50;99.90
25933;DHT22;13731;51.166;4.474;2022-11-20T03:07:58;4.40;99.90
25933;DHT22;13731;51.166;4.474;2022-11-20T03:10:24;4.40;99.90
25933;DHT22;13731;51.166;4.474;2022-11-20T03:12:53;4.40;99.90
25933;DHT22;13731;51.166;4.474;2022-11-20T03:15:21;4.30;99.90
25933;DHT22;13731;51.166;4.474;2022-11-20T03:17:46;4.30;99.90
25933;DHT22;13731;51.166;4.474;2022-11-20T03:20:12;4.20;99.90
25933;DHT22;13731;51.166;4.474;2022-11-20T03:22:38;4.20;1.00
25933;DHT22;13731;51.166;4.474;2022-11-20T03:25:03;4.20;1.00
25933;DHT22;13731;51.166;4.474;2022-11-20T03:27:33;4.40;99.90
25933;DHT22;13731;51.166;4.474;2022-11-20T03:29:59;4.60;99.90
25933;DHT22;13731;51.166;4.474;2022-11-20T03:32:25;4.70;99.90
25933;DHT22;13731;51.166;4.474;2022-11-20T03:34:50;4.60;99.90
25933;DHT22;13731;51.166;4.474;2022-11-20T03:37:16;4.60;99.90
25933;DHT22;13731;51.166;4.474;2022-11-20T03:39:42;4.70;99.90
25933;DHT22;13731;51.166;4.474;2022-11-20T03:42:08;4.60;99.90
25933;DHT22;13731;51.166;4.474;2022-11-20T03:44:53;4.50;99.90
25933;DHT22;13731;51.166;4.474;2022-11-20T03:47:19;4.50;99.90
25933;DHT22;13731;51.166;4.474;2022-11-20T03:49:45;4.60;99.90
25933;DHT22;13731;51.166;4.474;2022-11-20T03:52:10;4.60;99.90
25933;DHT22;13731;51.166;4.474;2022-11-20T03:54:36;4.60;99.90
25933;DHT22;13731;51.166;4.474;2022-11-20T03:57:01;4.40;1.00
25933;DHT22;13731;51.166;4.474;2022-11-20T03:59:27;4.40;1.00
25933;DHT22;13731;51.166;4.474;2022-11-20T04:01:53;4.40;1.00
25933;DHT22;13731;51.166;4.474;2022-11-20T04:04:18;4.60;1.00
25933;DHT22;13731;51.166;4.474;2022-11-20T04:06:44;4.70;99.90
25933;DHT22;13731;51.166;4.474;2022-11-20T04:09:10;4.80;99.90
25933;DHT22;13731;51.166;4.474;2022-11-20T04:11:36;4.90;99.90
25933;DHT22;13731;51.166;4.474;2022-11-20T04:14:03;4.90;99.90
25933;DHT22;13731;51.166;4.474;2022-11-20T04:16:29;4.80;99.90
25933;DHT22;13731;51.166;4.474;2022-11-20T04:18:57;4.80;99.90
25933;DHT22;13731;51.166;4.474;2022-11-20T04:21:23;4.70;99.90
25933;DHT22;13731;51.166;4.474;2022-11-20T04:23:51;4.80;99.90
25933;DHT22;13731;51.166;4.474;2022-11-20T04:26:20;5.20;99.90
25933;DHT22;13731;51.166;4.474;2022-11-20T04:28:46;5.30;1.00
25933;DHT22;13731;51.166;4.474;2022-11-20T04:31:16;5.20;99.90
25933;DHT22;13731;51.166;4.474;2022-11-20T04:33:42;4.90;1.00
25933;DHT22;13731;51.166;4.474;2022-11-20T04:36:10;4.70;99.90
25933;DHT22;13731;51.166;4.474;2022-11-20T04:38:36;4.70;99.90
25933;DHT22;13731;51.166;4.474;2022-11-20T04:41:03;4.60;99.90
25933;DHT22;13731;51.166;4.474;2022-11-20T04:43:30;4.70;99.90
25933;DHT22;13731;51.166;4.474;2022-11-20T04:45:56;4.90;99.90
25933;DHT22;13731;51.166;4.474;2022-11-20T04:48:23;4.90;99.90
25933;DHT22;13731;51.166;4.474;2022-11-20T04:50:49;4.80;99.90
25933;DHT22;13731;51.166;4.474;2022-11-20T04:53:15;4.90;99.90
25933;DHT22;13731;51.166;4.474;2022-11-20T04:55:40;4.70;99.90
25933;DHT22;13731;51.166;4.474;2022-11-20T04:58:06;4.50;99.90
25933;DHT22;13731;51.166;4.474;2022-11-20T05:00:32;4.20;1.00
25933;DHT22;13731;51.166;4.474;2022-11-20T05:02:57;4.20;1.00
25933;DHT22;13731;51.166;4.474;2022-11-20T05:05:23;4.30;1.00
25933;DHT22;13731;51.166;4.474;2022-11-20T05:07:49;4.30;1.00
25933;DHT22;13731;51.166;4.474;2022-11-20T05:10:14;4.20;1.00
25933;DHT22;13731;51.166;4.474;2022-11-20T05:12:40;4.20;1.00
25933;DHT22;13731;51.166;4.474;2022-11-20T05:15:06;4.20;1.00
25933;DHT22;13731;51.166;4.474;2022-11-20T05:17:32;4.30;1.00
25933;DHT22;13731;51.166;4.474;2022-11-20T05:19:57;4.10;1.00
25933;DHT22;13731;51.166;4.474;2022-11-20T05:22:23;4.10;1.00
25933;DHT22;13731;51.166;4.474;2022-11-20T05:24:49;4.30;1.00
25933;DHT22;13731;51.166;4.474;2022-11-20T05:27:15;4.40;1.00
25933;DHT22;13731;51.166;4.474;2022-11-20T05:29:40;4.40;1.00
25933;DHT22;13731;51.166;4.474;2022-11-20T05:32:06;4.20;1.00
25933;DHT22;13731;51.166;4.474;2022-11-20T05:34:35;4.20;1.00
25933;DHT22;13731;51.166;4.474;2022-11-20T05:37:01;4.10;1.00
25933;DHT22;13731;51.166;4.474;2022-11-20T05:39:26;4.20;1.00
25933;DHT22;13731;51.166;4.474;2022-11-20T05:41:52;4.10;1.00
25933;DHT22;13731;51.166;4.474;2022-11-20T05:44:37;4.10;1.00
25933;DHT22;13731;51.166;4.474;2022-11-20T05:47:03;4.00;1.00
25933;DHT22;13731;51.166;4.474;2022-11-20T05:49:28;4.00;24.40
25933;DHT22;13731;51.166;4.474;2022-11-20T05:51:54;3.90;21.10
25933;DHT22;13731;51.166;4.474;2022-11-20T05:54:20;4.00;21.00
25933;DHT22;13731;51.166;4.474;2022-11-20T05:56:45;3.90;15.30
25933;DHT22;13731;51.166;4.474;2022-11-20T05:59:11;4.00;36.70
25933;DHT22;13731;51.166;4.474;2022-11-20T06:01:37;4.00;24.80
25933;DHT22;13731;51.166;4.474;2022-11-20T06:04:02;3.90;19.70
25933;DHT22;13731;51.166;4.474;2022-11-20T06:06:28;3.80;23.10
25933;DHT22;13731;51.166;4.474;2022-11-20T06:08:54;3.70;42.00
25933;DHT22;13731;51.166;4.474;2022-11-20T06:11:20;3.70;49.30
25933;DHT22;13731;51.166;4.474;2022-11-20T06:13:46;3.60;58.90
25933;DHT22;13731;51.166;4.474;2022-11-20T06:16:13;3.60;75.80
25933;DHT22;13731;51.166;4.474;2022-11-20T06:18:39;3.70;74.20
25933;DHT22;13731;51.166;4.474;2022-11-20T06:21:05;3.70;58.60
25933;DHT22;13731;51.166;4.474;2022-11-20T06:23:32;3.60;87.40
25933;DHT22;13731;51.166;4.474;2022-11-20T06:26:00;3.60;95.80
25933;DHT22;13731;51.166;4.474;2022-11-20T06:28:26;3.70;88.90
25933;DHT22;13731;51.166;4.474;2022-11-20T06:30:52;3.60;70.80
25933;DHT22;13731;51.166;4.474;2022-11-20T06:33:17;3.60;91.00
25933;DHT22;13731;51.166;4.474;2022-11-20T06:35:43;3.60;95.80
25933;DHT22;13731;51.166;4.474;2022-11-20T06:38:09;3.90;91.40
25933;DHT22;13731;51.166;4.474;2022-11-20T06:40:34;3.90;45.10
25933;DHT22;13731;51.166;4.474;2022-11-20T06:43:00;3.90;27.90
25933;DHT22;13731;51.166;4.474;2022-11-20T06:45:26;3.90;18.80
25933;DHT22;13731;51.166;4.474;2022-11-20T06:47:52;3.80;33.20
25933;DHT22;13731;51.166;4.474;2022-11-20T06:50:17;3.80;46.90
25933;DHT22;13731;51.166;4.474;2022-11-20T06:52:43;3.80;52.90
25933;DHT22;13731;51.166;4.474;2022-11-20T06:55:09;3.90;47.60
25933;DHT22;13731;51.166;4.474;2022-11-20T06:57:34;3.90;36.30
25933;DHT22;13731;51.166;4.474;2022-11-20T07:00:00;3.80;40.50
25933;DHT22;13731;51.166;4.474;2022-11-20T07:02:26;3.80;58.70
25933;DHT22;13731;51.166;4.474;2022-11-20T07:04:52;3.60;79.50
25933;DHT22;13731;51.166;4.474;2022-11-20T07:07:17;3.60;99.90
25933;DHT22;13731;51.166;4.474;2022-11-20T07:09:43;3.80;99.90
25933;DHT22;13731;51.166;4.474;2022-11-20T07:12:09;4.00;98.40
25933;DHT22;13731;51.166;4.474;2022-11-20T07:14:35;4.30;64.90
25933;DHT22;13731;51.166;4.474;2022-11-20T07:17:00;4.30;1.00
25933;DHT22;13731;51.166;4.474;2022-11-20T07:19:26;4.20;1.00
25933;DHT22;13731;51.166;4.474;2022-11-20T07:21:52;4.20;1.00
25933;DHT22;13731;51.166;4.474;2022-11-20T07:24:17;4.10;1.00
25933;DHT22;13731;51.166;4.474;2022-11-20T07:26:45;4.00;1.00
25933;DHT22;13731;51.166;4.474;2022-11-20T07:29:11;4.10;1.00
25933;DHT22;13731;51.166;4.474;2022-11-20T07:31:37;4.10;1.00
25933;DHT22;13731;51.166;4.474;2022-11-20T07:34:02;4.20;1.00
25933;DHT22;13731;51.166;4.474;2022-11-20T07:36:28;4.20;1.00
25933;DHT22;13731;51.166;4.474;2022-11-20T07:38:54;4.20;1.00
25933;DHT22;13731;51.166;4.474;2022-11-20T07:41:19;4.00;1.00
25933;DHT22;13731;51.166;4.474;2022-11-20T07:43:46;4.00;30.50
25933;DHT22;13731;51.166;4.474;2022-11-20T07:46:12;4.00;50.00
25933;DHT22;13731;51.166;4.474;2022-11-20T07:48:37;4.30;57.00
25933;DHT22;13731;51.166;4.474;2022-11-20T07:51:03;4.40;9.40
25933;DHT22;13731;51.166;4.474;2022-11-20T07:53:29;4.50;1.00
25933;DHT22;13731;51.166;4.474;2022-11-20T07:55:54;4.60;1.00
25933;DHT22;13731;51.166;4.474;2022-11-20T07:58:20;4.70;1.00
25933;DHT22;13731;51.166;4.474;2022-11-20T08:00:46;4.50;1.00
25933;DHT22;13731;51.166;4.474;2022-11-20T08:03:12;4.30;1.00
25933;DHT22;13731;51.166;4.474;2022-11-20T08:05:38;4.40;1.00
25933;DHT22;13731;51.166;4.474;2022-11-20T08:08:05;4.60;1.00
25933;DHT22;13731;51.166;4.474;2022-11-20T08:10:32;4.80;1.00
25933;DHT22;13731;51.166;4.474;2022-11-20T08:12:58;4.80;1.00
25933;DHT22;13731;51.166;4.474;2022-11-20T08:15:47;4.90;1.00
25933;DHT22;13731;51.166;4.474;2022-11-20T08:18:12;5.10;1.00
25933;DHT22;13731;51.166;4.474;2022-11-20T08:20:38;5.00;1.00
25933;DHT22;13731;51.166;4.474;2022-11-20T08:23:05;4.80;1.00
25933;DHT22;13731;51.166;4.474;2022-11-20T08:25:31;4.90;1.00
25933;DHT22;13731;51.166;4.474;2022-11-20T08:28:01;5.20;1.00
25933;DHT22;13731;51.166;4.474;2022-11-20T08:30:27;5.00;1.00
25933;DHT22;13731;51.166;4.474;2022-11-20T08:32:53;4.80;1.00
25933;DHT22;13731;51.166;4.474;2022-11-20T08:35:20;4.90;1.00
25933;DHT22;13731;51.166;4.474;2022-11-20T08:37:46;5.00;1.00
25933;DHT22;13731;51.166;4.474;2022-11-20T08:40:12;5.20;1.00
25933;DHT22;13731;51.166;4.474;2022-11-20T08:42:45;5.40;1.00
25933;DHT22;13731;51.166;4.474;2022-11-20T08:45:11;5.30;1.00
25933;DHT22;13731;51.166;4.474;2022-11-20T08:47:36;5.20;1.00
25933;DHT22;13731;51.166;4.474;2022-11-20T08:50:02;5.10;1.00
25933;DHT22;13731;51.166;4.474;2022-11-20T08:52:28;4.90;1.00
25933;DHT22;13731;51.166;4.474;2022-11-20T08:54:54;5.00;1.00
25933;DHT22;13731;51.166;4.474;2022-11-20T08:57:19;5.10;1.00
25933;DHT22;13731;51.166;4.474;2022-11-20T08:59:45;5.30;1.00
25933;DHT22;13731;51.166;4.474;2022-11-20T09:02:11;5.40;1.00
25933;DHT22;13731;51.166;4.474;2022-11-20T09:04:37;5.40;1.00
25933;DHT22;13731;51.166;4.474;2022-11-20T09:07:03;5.50;1.00
25933;DHT22;13731;51.166;4.474;2022-11-20T09:09:28;5.50;1.00
25933;DHT22;13731;51.166;4.474;2022-11-20T09:11:54;5.30;1.00
25933;DHT22;13731;51.166;4.474;2022-11-20T09:14:20;5.30;1.00
25933;DHT22;13731;51.166;4.474;2022-11-20T09:16:46;5.60;1.00
25933;DHT22;13731;51.166;4.474;2022-11-20T09:19:12;6.00;1.00
25933;DHT22;13731;51.166;4.474;2022-11-20T09:21:38;6.00;99.90
25933;DHT22;13731;51.166;4.474;2022-11-20T09:24:04;6.20;99.90
25933;DHT22;13731;51.166;4.474;2022-11-20T09:26:30;6.10;52.80
25933;DHT22;13731;51.166;4.474;2022-11-20T09:28:56;6.20;99.90
25933;DHT22;13731;51.166;4.474;2022-11-20T09:31:23;6.20;99.90
25933;DHT22;13731;51.166;4.474;2022-11-20T09:33:48;6.20;99.90
25933;DHT22;13731;51.166;4.474;2022-11-20T09:36:14;6.50;99.90
25933;DHT22;13731;51.166;4.474;2022-11-20T09:38:41;6.30;99.90
25933;DHT22;13731;51.166;4.474;2022-11-20T09:41:10;6.20;99.90
25933;DHT22;13731;51.166;4.474;2022-11-20T09:46:45;6.10;1.00
25933;DHT22;13731;51.166;4.474;2022-11-20T09:51:58;6.10;1.00
25933;DHT22;13731;51.166;4.474;2022-11-20T09:54:35;6.10;1.00
25933;DHT22;13731;51.166;4.474;2022-11-20T09:57:24;6.20;1.00
25933;DHT22;13731;51.166;4.474;2022-11-20T09:59:53;6.20;1.00
25933;DHT22;13731;51.166;4.474;2022-11-20T10:04:51;6.30;1.00
25933;DHT22;13731;51.166;4.474;2022-11-20T10:07:23;6.30;1.00
25933;DHT22;13731;51.166;4.474;2022-11-20T10:09:51;6.30;1.00
25933;DHT22;13731;51.166;4.474;2022-11-20T10:15:04;6.10;12.10
25933;DHT22;13731;51.166;4.474;2022-11-20T10:25:34;5.90;99.90
25933;DHT22;13731;51.166;4.474;2022-11-20T10:30:28;5.90;99.90
25933;DHT22;13731;51.166;4.474;2022-11-20T10:33:00;6.00;99.90
25933;DHT22;13731;51.166;4.474;2022-11-20T10:35:32;6.10;99.90
25933;DHT22;13731;51.166;4.474;2022-11-20T10:38:00;6.10;99.90
25933;DHT22;13731;51.166;4.474;2022-11-20T10:47:56;6.20;99.90
25933;DHT22;13731;51.166;4.474;2022-11-20T10:50:31;6.40;99.90
25933;DHT22;13731;51.166;4.474;2022-11-20T11:00:23;6.90;99.90
25933;DHT22;13731;51.166;4.474;2022-11-20T11:02:49;7.10;99.90
25933;DHT22;13731;51.166;4.474;2022-11-20T11:05:36;7.00;95.50
25933;DHT22;13731;51.166;4.474;2022-11-20T11:08:03;7.00;92.10
25933;DHT22;13731;51.166;4.474;2022-11-20T11:12:55;7.20;99.90
25933;DHT22;13731;51.166;4.474;2022-11-20T11:15:26;7.50;89.30
25933;DHT22;13731;51.166;4.474;2022-11-20T11:17:52;7.30;12.20
25933;DHT22;13731;51.166;4.474;2022-11-20T11:20:19;7.00;48.10
25933;DHT22;13731;51.166;4.474;2022-11-20T11:22:46;7.10;99.90
25933;DHT22;13731;51.166;4.474;2022-11-20T11:25:23;7.30;99.90
25933;DHT22;13731;51.166;4.474;2022-11-20T11:27:50;7.40;92.10
25933;DHT22;13731;51.166;4.474;2022-11-20T11:30:16;7.40;78.80
25933;DHT22;13731;51.166;4.474;2022-11-20T11:32:43;7.30;70.80
25933;DHT22;13731;51.166;4.474;2022-11-20T11:35:18;7.30;98.30
25933;DHT22;13731;51.166;4.474;2022-11-20T11:37:44;7.40;99.90
25933;DHT22;13731;51.166;4.474;2022-11-20T11:40:10;7.50;98.60
25933;DHT22;13731;51.166;4.474;2022-11-20T11:42:41;7.90;92.30
25933;DHT22;13731;51.166;4.474;2022-11-20T11:45:11;8.10;1.00
25933;DHT22;13731;51.166;4.474;2022-11-20T11:53:12;8.10;1.00
25933;DHT22;13731;51.166;4.474;2022-11-20T11:58:11;8.20;1.00
25933;DHT22;13731;51.166;4.474;2022-11-20T12:00:41;8.60;1.00
25933;DHT22;13731;51.166;4.474;2022-11-20T12:05:40;8.90;1.00
25933;DHT22;13731;51.166;4.474;2022-11-20T12:15:58;8.70;99.90
25933;DHT22;13731;51.166;4.474;2022-11-20T12:18:24;8.50;99.90
25933;DHT22;13731;51.166;4.474;2022-11-20T12:25:51;8.70;99.90
25933;DHT22;13731;51.166;4.474;2022-11-20T12:39:01;8.50;1.00
25933;DHT22;13731;51.166;4.474;2022-11-20T12:47:22;8.50;1.00
25933;DHT22;13731;51.166;4.474;2022-11-20T12:49:53;8.40;15.60
25933;DHT22;13731;51.166;4.474;2022-11-20T12:52:37;8.30;21.80
25933;DHT22;13731;51.166;4.474;2022-11-20T13:00:15;8.10;99.90
25933;DHT22;13731;51.166;4.474;2022-11-20T13:07:55;7.90;99.90
25933;DHT22;13731;51.166;4.474;2022-11-20T13:11:06;7.80;99.90
25933;DHT22;13731;51.166;4.474;2022-11-20T13:15:40;7.80;99.90
25933;DHT22;13731;51.166;4.474;2022-11-20T13:18:08;7.80;99.90
25933;DHT22;13731;51.166;4.474;2022-11-20T13:20:35;7.80;99.90
25933;DHT22;13731;51.166;4.474;2022-11-20T13:23:01;7.70;99.90
25933;DHT22;13731;51.166;4.474;2022-11-20T13:25:31;7.70;99.90
25933;DHT22;13731;51.166;4.474;2022-11-20T13:27:58;7.80;99.90
25933;DHT22;13731;51.166;4.474;2022-11-20T13:30:24;7.80;99.90
25933;DHT22;13731;51.166;4.474;2022-11-20T13:32:52;7.80;99.90
25933;DHT22;13731;51.166;4.474;2022-11-20T13:35:34;7.90;99.90
25933;DHT22;13731;51.166;4.474;2022-11-20T13:38:13;7.90;99.90
25933;DHT22;13731;51.166;4.474;2022-11-20T13:40:52;7.80;99.90
25933;DHT22;13731;51.166;4.474;2022-11-20T13:43:35;7.80;99.90
25933;DHT22;13731;51.166;4.474;2022-11-20T13:46:03;7.80;99.90
25933;DHT22;13731;51.166;4.474;2022-11-20T13:48:41;7.80;99.90
25933;DHT22;13731;51.166;4.474;2022-11-20T13:53:52;7.80;99.90
25933;DHT22;13731;51.166;4.474;2022-11-20T13:56:40;7.80;99.90
25933;DHT22;13731;51.166;4.474;2022-11-20T14:01:34;7.70;99.90
25933;DHT22;13731;51.166;4.474;2022-11-20T14:04:01;7.70;99.90
25933;DHT22;13731;51.166;4.474;2022-11-20T14:06:33;7.70;99.90
25933;DHT22;13731;51.166;4.474;2022-11-20T14:09:00;7.70;99.90
25933;DHT22;13731;51.166;4.474;2022-11-20T14:11:26;7.70;99.90
25933;DHT22;13731;51.166;4.474;2022-11-20T14:13:57;7.70;99.90
25933;DHT22;13731;51.166;4.474;2022-11-20T14:16:23;7.70;99.90
25933;DHT22;13731;51.166;4.474;2022-11-20T14:18:49;7.70;99.90
25933;DHT22;13731;51.166;4.474;2022-11-20T14:21:25;7.70;99.90
25933;DHT22;13731;51.166;4.474;2022-11-20T14:23:52;7.60;99.90
25933;DHT22;13731;51.166;4.474;2022-11-20T14:26:18;7.70;99.90
25933;DHT22;13731;51.166;4.474;2022-11-20T14:28:47;7.70;99.90
25933;DHT22;13731;51.166;4.474;2022-11-20T14:31:17;7.70;99.90
25933;DHT22;13731;51.166;4.474;2022-11-20T14:33:44;7.70;99.90
25933;DHT22;13731;51.166;4.474;2022-11-20T14:36:15;7.70;99.90
25933;DHT22;13731;51.166;4.474;2022-11-20T14:38:42;7.70;99.90
25933;DHT22;13731;51.166;4.474;2022-11-20T14:41:09;7.80;99.90
25933;DHT22;13731;51.166;4.474;2022-11-20T14:43:44;7.70;99.90
25933;DHT22;13731;51.166;4.474;2022-11-20T14:46:10;7.70;99.90
25933;DHT22;13731;51.166;4.474;2022-11-20T14:48:41;7.70;99.90
25933;DHT22;13731;51.166;4.474;2022-11-20T14:51:10;7.80;99.90
25933;DHT22;13731;51.166;4.474;2022-11-20T14:53:36;7.90;99.90
25933;DHT22;13731;51.166;4.474;2022-11-20T14:56:02;7.90;99.90
25933;DHT22;13731;51.166;4.474;2022-11-20T14:58:29;7.90;99.90
25933;DHT22;13731;51.166;4.474;2022-11-20T15:00:56;7.80;99.90
25933;DHT22;13731;51.166;4.474;2022-11-20T15:03:22;7.90;99.90
25933;DHT22;13731;51.166;4.474;2022-11-20T15:05:48;8.00;99.90
25933;DHT22;13731;51.166;4.474;2022-11-20T15:08:14;8.00;99.90
25933;DHT22;13731;51.166;4.474;2022-11-20T15:10:50;8.20;99.90
25933;DHT22;13731;51.166;4.474;2022-11-20T15:13:26;8.20;99.90
25933;DHT22;13731;51.166;4.474;2022-11-20T15:15:55;8.40;99.90
25933;DHT22;13731;51.166;4.474;2022-11-20T15:18:22;8.40;99.90
25933;DHT22;13731;51.166;4.474;2022-11-20T15:20:49;8.40;99.90
25933;DHT22;13731;51.166;4.474;2022-11-20T15:23:15;8.40;99.90
25933;DHT22;13731;51.166;4.474;2022-11-20T15:25:43;8.50;99.90
25933;DHT22;13731;51.166;4.474;2022-11-20T15:28:29;8.50;99.90
25933;DHT22;13731;51.166;4.474;2022-11-20T15:30:54;8.40;99.90
25933;DHT22;13731;51.166;4.474;2022-11-20T15:33:21;8.50;99.90
25933;DHT22;13731;51.166;4.474;2022-11-20T15:35:47;8.50;99.90
25933;DHT22;13731;51.166;4.474;2022-11-20T15:38:13;8.60;99.90
25933;DHT22;13731;51.166;4.474;2022-11-20T15:40:39;8.50;99.90
25933;DHT22;13731;51.166;4.474;2022-11-20T15:43:04;8.60;99.90
25933;DHT22;13731;51.166;4.474;2022-11-20T15:48:17;8.70;99.90
25933;DHT22;13731;51.166;4.474;2022-11-20T15:50:47;8.70;99.90
25933;DHT22;13731;51.166;4.474;2022-11-20T15:53:15;8.80;99.90
25933;DHT22;13731;51.166;4.474;2022-11-20T15:55:40;8.80;99.90
25933;DHT22;13731;51.166;4.474;2022-11-20T15:58:06;8.60;99.90
25933;DHT22;13731;51.166;4.474;2022-11-20T16:00:32;8.60;99.90
25933;DHT22;13731;51.166;4.474;2022-11-20T16:02:58;8.60;99.90
25933;DHT22;13731;51.166;4.474;2022-11-20T16:05:24;8.70;99.90
25933;DHT22;13731;51.166;4.474;2022-11-20T16:07:52;8.60;99.90
25933;DHT22;13731;51.166;4.474;2022-11-20T16:10:18;8.70;99.90
25933;DHT22;13731;51.166;4.474;2022-11-20T16:12:44;8.80;99.90
25933;DHT22;13731;51.166;4.474;2022-11-20T16:15:29;8.60;99.90
25933;DHT22;13731;51.166;4.474;2022-11-20T16:18:14;8.70;99.90
25933;DHT22;13731;51.166;4.474;2022-11-20T16:20:40;8.70;99.90
25933;DHT22;13731;51.166;4.474;2022-11-20T16:23:06;8.60;99.90
25933;DHT22;13731;51.166;4.474;2022-11-20T16:25:32;8.60;99.90
25933;DHT22;13731;51.166;4.474;2022-11-20T16:27:58;8.60;99.90
25933;DHT22;13731;51.166;4.474;2022-11-20T16:30:23;8.70;99.90
25933;DHT22;13731;51.166;4.474;2022-11-20T16:32:49;8.70;99.90
25933;DHT22;13731;51.166;4.474;2022-11-20T16:35:15;8.60;99.90
25933;DHT22;13731;51.166;4.474;2022-11-20T16:37:41;8.60;99.90
25933;DHT22;13731;51.166;4.474;2022-11-20T16:40:08;8.60;99.90
25933;DHT22;13731;51.166;4.474;2022-11-20T16:42:34;8.70;99.90
25933;DHT22;13731;51.166;4.474;2022-11-20T16:45:00;8.70;99.90
25933;DHT22;13731;51.166;4.474;2022-11-20T16:47:26;8.70;99.90
25933;DHT22;13731;51.166;4.474;2022-11-20T16:49:51;8.70;99.90
25933;DHT22;13731;51.166;4.474;2022-11-20T16:52:17;8.70;99.90
25933;DHT22;13731;51.166;4.474;2022-11-20T16:54:43;8.70;99.90
25933;DHT22;13731;51.166;4.474;2022-11-20T16:57:08;8.60;99.90
25933;DHT22;13731;51.166;4.474;2022-11-20T16:59:34;8.70;99.90
25933;DHT22;13731;51.166;4.474;2022-11-20T17:02:00;8.70;99.90
25933;DHT22;13731;51.166;4.474;2022-11-20T17:04:25;8.70;99.90
25933;DHT22;13731;51.166;4.474;2022-11-20T17:06:51;8.70;99.90
25933;DHT22;13731;51.166;4.474;2022-11-20T17:09:17;8.80;99.90
25933;DHT22;13731;51.166;4.474;2022-11-20T17:11:42;8.70;99.90
25933;DHT22;13731;51.166;4.474;2022-11-20T17:14:09;8.60;99.90
25933;DHT22;13731;51.166;4.474;2022-11-20T17:16:36;8.60;99.90
25933;DHT22;13731;51.166;4.474;2022-11-20T17:19:02;8.60;99.90
25933;DHT22;13731;51.166;4.474;2022-11-20T17:21:32;8.60;99.90
25933;DHT22;13731;51.166;4.474;2022-11-20T17:24:01;8.60;99.90
25933;DHT22;13731;51.166;4.474;2022-11-20T17:26:27;8.70;99.90
25933;DHT22;13731;51.166;4.474;2022-11-20T17:28:54;8.60;99.90
25933;DHT22;13731;51.166;4.474;2022-11-20T17:31:20;8.70;99.90